sensor_id;sensor_type;location;lat;lon;timestamp;P1;durP1;ratioP1;P2;durP2;ratioP2
23588;SDS011;11972;48.078;11.876;2024-01-30T00:01:30;6.60;;;4.68;;
23588;SDS011;11972;48.078;11.876;2024-01-30T00:05:30;5.32;;;4.22;;
23588;SDS011;11972;48.078;11.876;2024-01-30T00:09:31;6.20;;;3.95;;
23588;SDS011;11972;48.078;11.876;2024-01-30T00:13:31;4.15;;;3.47;;
23588;SDS011;11972;48.078;11.876;2024-01-30T00:17:31;5.57;;;3.80;;
23588;SDS011;11972;48.078;11.876;2024-01-30T00:21:32;4.68;;;3.33;;
23588;SDS011;11972;48.078;11.876;2024-01-30T00:25:32;5.22;;;3.45;;
23588;SDS011;11972;48.078;11.876;2024-01-30T00:29:33;5.93;;;3.50;;
23588;SDS011;11972;48.078;11.876;2024-01-30T00:33:34;7.53;;;4.57;;
23588;SDS011;11972;48.078;11.876;2024-01-30T00:37:34;5.93;;;4.30;;
23588;SDS011;11972;48.078;11.876;2024-01-30T00:41:34;6.95;;;4.70;;
23588;SDS011;11972;48.078;11.876;2024-01-30T00:45:35;5.82;;;4.63;;
23588;SDS011;11972;48.078;11.876;2024-01-30T00:49:35;6.03;;;4.78;;
23588;SDS011;11972;48.078;11.876;2024-01-30T00:53:36;6.82;;;4.05;;
23588;SDS011;11972;48.078;11.876;2024-01-30T00:57:36;4.38;;;3.90;;
23588;SDS011;11972;48.078;11.876;2024-01-30T01:01:36;5.43;;;4.00;;
23588;SDS011;11972;48.078;11.876;2024-01-30T01:05:37;5.97;;;4.00;;
23588;SDS011;11972;48.078;11.876;2024-01-30T01:09:37;6.00;;;4.22;;
23588;SDS011;11972;48.078;11.876;2024-01-30T01:13:37;5.78;;;4.07;;
23588;SDS011;11972;48.078;11.876;2024-01-30T01:17:38;6.85;;;4.40;;
23588;SDS011;11972;48.078;11.876;2024-01-30T01:21:39;4.10;;;3.70;;
23588;SDS011;11972;48.078;11.876;2024-01-30T01:25:39;6.10;;;4.05;;
23588;SDS011;11972;48.078;11.876;2024-01-30T01:29:39;5.38;;;4.07;;
23588;SDS011;11972;48.078;11.876;2024-01-30T01:33:39;6.38;;;3.80;;
23588;SDS011;11972;48.078;11.876;2024-01-30T01:37:40;5.00;;;4.45;;
23588;SDS011;11972;48.078;11.876;2024-01-30T01:41:40;8.85;;;3.97;;
23588;SDS011;11972;48.078;11.876;2024-01-30T01:45:41;4.82;;;4.00;;
23588;SDS011;11972;48.078;11.876;2024-01-30T01:49:41;5.78;;;4.05;;
23588;SDS011;11972;48.078;11.876;2024-01-30T01:53:42;6.13;;;4.65;;
23588;SDS011;11972;48.078;11.876;2024-01-30T01:57:43;5.78;;;4.05;;
23588;SDS011;11972;48.078;11.876;2024-01-30T02:01:43;5.53;;;4.47;;
23588;SDS011;11972;48.078;11.876;2024-01-30T02:05:45;4.97;;;4.10;;
23588;SDS011;11972;48.078;11.876;2024-01-30T02:09:46;5.85;;;4.50;;
23588;SDS011;11972;48.078;11.876;2024-01-30T02:13:46;5.85;;;4.93;;
23588;SDS011;11972;48.078;11.876;2024-01-30T02:17:47;5.50;;;4.97;;
23588;SDS011;11972;48.078;11.876;2024-01-30T02:21:47;6.50;;;5.35;;
23588;SDS011;11972;48.078;11.876;2024-01-30T02:25:48;6.38;;;4.63;;
23588;SDS011;11972;48.078;11.876;2024-01-30T02:29:48;4.95;;;4.07;;
23588;SDS011;11972;48.078;11.876;2024-01-30T02:33:48;5.75;;;4.35;;
23588;SDS011;11972;48.078;11.876;2024-01-30T02:37:49;4.50;;;4.10;;
23588;SDS011;11972;48.078;11.876;2024-01-30T02:41:49;6.03;;;4.18;;
23588;SDS011;11972;48.078;11.876;2024-01-30T02:45:50;5.10;;;4.43;;
23588;SDS011;11972;48.078;11.876;2024-01-30T02:49:50;5.13;;;4.10;;
23588;SDS011;11972;48.078;11.876;2024-01-30T02:53:52;5.95;;;4.20;;
23588;SDS011;11972;48.078;11.876;2024-01-30T02:57:52;5.70;;;4.40;;
23588;SDS011;11972;48.078;11.876;2024-01-30T03:01:52;5.85;;;4.22;;
23588;SDS011;11972;48.078;11.876;2024-01-30T03:05:53;4.10;;;3.70;;
23588;SDS011;11972;48.078;11.876;2024-01-30T03:09:53;4.45;;;4.05;;
23588;SDS011;11972;48.078;11.876;2024-01-30T03:13:55;6.43;;;3.58;;
23588;SDS011;11972;48.078;11.876;2024-01-30T03:17:56;4.95;;;3.67;;
23588;SDS011;11972;48.078;11.876;2024-01-30T03:21:56;4.82;;;3.47;;
23588;SDS011;11972;48.078;11.876;2024-01-30T03:25:56;4.78;;;3.10;;
23588;SDS011;11972;48.078;11.876;2024-01-30T03:29:57;6.03;;;3.33;;
23588;SDS011;11972;48.078;11.876;2024-01-30T03:33:57;4.22;;;3.05;;
23588;SDS011;11972;48.078;11.876;2024-01-30T03:37:58;3.22;;;2.75;;
23588;SDS011;11972;48.078;11.876;2024-01-30T03:41:58;5.40;;;3.20;;
23588;SDS011;11972;48.078;11.876;2024-01-30T03:45:59;3.38;;;2.75;;
23588;SDS011;11972;48.078;11.876;2024-01-30T03:49:59;3.83;;;2.78;;
23588;SDS011;11972;48.078;11.876;2024-01-30T03:53:59;3.80;;;2.80;;
23588;SDS011;11972;48.078;11.876;2024-01-30T03:58:00;3.72;;;2.70;;
23588;SDS011;11972;48.078;11.876;2024-01-30T04:02:00;3.10;;;2.70;;
23588;SDS011;11972;48.078;11.876;2024-01-30T04:06:00;3.95;;;2.60;;
23588;SDS011;11972;48.078;11.876;2024-01-30T04:10:01;2.67;;;2.45;;
23588;SDS011;11972;48.078;11.876;2024-01-30T04:14:01;3.25;;;2.95;;
23588;SDS011;11972;48.078;11.876;2024-01-30T04:18:01;2.60;;;2.33;;
23588;SDS011;11972;48.078;11.876;2024-01-30T04:22:02;2.63;;;2.42;;
23588;SDS011;11972;48.078;11.876;2024-01-30T04:26:02;3.25;;;2.80;;
23588;SDS011;11972;48.078;11.876;2024-01-30T04:30:03;2.92;;;2.38;;
23588;SDS011;11972;48.078;11.876;2024-01-30T04:34:04;4.78;;;3.55;;
23588;SDS011;11972;48.078;11.876;2024-01-30T04:38:04;4.38;;;3.10;;
23588;SDS011;11972;48.078;11.876;2024-01-30T04:42:04;6.57;;;2.67;;
23588;SDS011;11972;48.078;11.876;2024-01-30T04:46:05;4.57;;;2.90;;
23588;SDS011;11972;48.078;11.876;2024-01-30T04:50:06;3.15;;;2.45;;
23588;SDS011;11972;48.078;11.876;2024-01-30T04:54:07;3.97;;;2.47;;
23588;SDS011;11972;48.078;11.876;2024-01-30T04:58:07;2.75;;;2.42;;
23588;SDS011;11972;48.078;11.876;2024-01-30T05:02:08;2.60;;;2.30;;
23588;SDS011;11972;48.078;11.876;2024-01-30T05:06:08;3.10;;;2.42;;
23588;SDS011;11972;48.078;11.876;2024-01-30T05:10:09;2.75;;;2.22;;
23588;SDS011;11972;48.078;11.876;2024-01-30T05:14:09;2.67;;;2.20;;
23588;SDS011;11972;48.078;11.876;2024-01-30T05:18:11;2.67;;;2.25;;
23588;SDS011;11972;48.078;11.876;2024-01-30T05:22:11;2.13;;;1.90;;
23588;SDS011;11972;48.078;11.876;2024-01-30T05:26:15;1.85;;;1.63;;
23588;SDS011;11972;48.078;11.876;2024-01-30T05:30:15;2.78;;;2.15;;
23588;SDS011;11972;48.078;11.876;2024-01-30T05:34:16;3.30;;;2.40;;
23588;SDS011;11972;48.078;11.876;2024-01-30T05:38:16;3.28;;;2.97;;
23588;SDS011;11972;48.078;11.876;2024-01-30T05:42:16;2.40;;;2.20;;
23588;SDS011;11972;48.078;11.876;2024-01-30T05:46:17;4.00;;;2.83;;
23588;SDS011;11972;48.078;11.876;2024-01-30T05:50:17;3.88;;;3.30;;
23588;SDS011;11972;48.078;11.876;2024-01-30T05:54:17;2.95;;;2.60;;
23588;SDS011;11972;48.078;11.876;2024-01-30T05:58:18;3.95;;;2.67;;
23588;SDS011;11972;48.078;11.876;2024-01-30T06:02:18;5.40;;;3.78;;
23588;SDS011;11972;48.078;11.876;2024-01-30T06:06:18;3.58;;;3.28;;
23588;SDS011;11972;48.078;11.876;2024-01-30T06:10:19;2.95;;;2.65;;
23588;SDS011;11972;48.078;11.876;2024-01-30T06:14:19;3.33;;;2.20;;
23588;SDS011;11972;48.078;11.876;2024-01-30T06:18:19;2.80;;;2.50;;
23588;SDS011;11972;48.078;11.876;2024-01-30T06:22:20;2.58;;;1.88;;
23588;SDS011;11972;48.078;11.876;2024-01-30T06:26:21;2.42;;;1.80;;
23588;SDS011;11972;48.078;11.876;2024-01-30T06:30:21;2.25;;;1.98;;
23588;SDS011;11972;48.078;11.876;2024-01-30T06:34:21;2.80;;;2.00;;
23588;SDS011;11972;48.078;11.876;2024-01-30T06:38:22;1.98;;;1.70;;
23588;SDS011;11972;48.078;11.876;2024-01-30T06:42:22;2.55;;;1.73;;
23588;SDS011;11972;48.078;11.876;2024-01-30T06:46:22;2.28;;;2.03;;
23588;SDS011;11972;48.078;11.876;2024-01-30T06:50:23;4.10;;;3.65;;
23588;SDS011;11972;48.078;11.876;2024-01-30T06:54:23;15.70;;;10.45;;
23588;SDS011;11972;48.078;11.876;2024-01-30T06:58:23;8.82;;;7.05;;
23588;SDS011;11972;48.078;11.876;2024-01-30T07:02:23;9.93;;;7.07;;
23588;SDS011;11972;48.078;11.876;2024-01-30T07:06:24;9.15;;;6.07;;
23588;SDS011;11972;48.078;11.876;2024-01-30T07:10:24;8.15;;;5.18;;
23588;SDS011;11972;48.078;11.876;2024-01-30T07:14:25;6.90;;;4.53;;
23588;SDS011;11972;48.078;11.876;2024-01-30T07:18:25;4.40;;;3.65;;
23588;SDS011;11972;48.078;11.876;2024-01-30T07:22:25;9.00;;;4.10;;
23588;SDS011;11972;48.078;11.876;2024-01-30T07:26:25;5.65;;;3.83;;
23588;SDS011;11972;48.078;11.876;2024-01-30T07:30:26;7.45;;;4.03;;
23588;SDS011;11972;48.078;11.876;2024-01-30T07:34:26;8.77;;;4.75;;
23588;SDS011;11972;48.078;11.876;2024-01-30T07:38:27;5.88;;;3.78;;
23588;SDS011;11972;48.078;11.876;2024-01-30T07:42:31;4.78;;;3.50;;
23588;SDS011;11972;48.078;11.876;2024-01-30T07:46:32;5.43;;;3.47;;
23588;SDS011;11972;48.078;11.876;2024-01-30T07:50:32;3.80;;;3.05;;
23588;SDS011;11972;48.078;11.876;2024-01-30T07:54:32;7.85;;;4.55;;
23588;SDS011;11972;48.078;11.876;2024-01-30T07:58:39;5.05;;;3.50;;
23588;SDS011;11972;48.078;11.876;2024-01-30T08:02:39;6.43;;;3.63;;
23588;SDS011;11972;48.078;11.876;2024-01-30T08:06:39;5.53;;;3.70;;
23588;SDS011;11972;48.078;11.876;2024-01-30T08:10:39;4.18;;;2.90;;
23588;SDS011;11972;48.078;11.876;2024-01-30T08:14:40;2.47;;;2.00;;
23588;SDS011;11972;48.078;11.876;2024-01-30T08:18:41;1.60;;;1.35;;
23588;SDS011;11972;48.078;11.876;2024-01-30T08:22:41;2.03;;;1.13;;
23588;SDS011;11972;48.078;11.876;2024-01-30T08:26:42;2.50;;;1.30;;
23588;SDS011;11972;48.078;11.876;2024-01-30T08:30:42;1.33;;;1.10;;
23588;SDS011;11972;48.078;11.876;2024-01-30T08:34:42;1.13;;;1.02;;
23588;SDS011;11972;48.078;11.876;2024-01-30T08:38:43;1.90;;;1.00;;
23588;SDS011;11972;48.078;11.876;2024-01-30T08:42:43;1.88;;;1.15;;
23588;SDS011;11972;48.078;11.876;2024-01-30T08:46:44;2.20;;;1.50;;
23588;SDS011;11972;48.078;11.876;2024-01-30T08:50:45;2.33;;;1.80;;
23588;SDS011;11972;48.078;11.876;2024-01-30T08:54:45;1.75;;;1.60;;
23588;SDS011;11972;48.078;11.876;2024-01-30T08:58:45;3.65;;;2.00;;
23588;SDS011;11972;48.078;11.876;2024-01-30T09:02:46;2.63;;;2.30;;
23588;SDS011;11972;48.078;11.876;2024-01-30T09:06:47;2.63;;;2.33;;
23588;SDS011;11972;48.078;11.876;2024-01-30T09:10:48;2.80;;;2.50;;
23588;SDS011;11972;48.078;11.876;2024-01-30T09:14:49;3.25;;;2.78;;
23588;SDS011;11972;48.078;11.876;2024-01-30T09:18:50;3.20;;;2.10;;
23588;SDS011;11972;48.078;11.876;2024-01-30T09:22:50;3.85;;;2.60;;
23588;SDS011;11972;48.078;11.876;2024-01-30T09:26:50;2.70;;;2.00;;
23588;SDS011;11972;48.078;11.876;2024-01-30T09:30:51;2.42;;;2.20;;
23588;SDS011;11972;48.078;11.876;2024-01-30T09:34:51;2.05;;;1.85;;
23588;SDS011;11972;48.078;11.876;2024-01-30T09:38:51;2.17;;;1.83;;
23588;SDS011;11972;48.078;11.876;2024-01-30T09:42:52;2.03;;;1.40;;
23588;SDS011;11972;48.078;11.876;2024-01-30T09:46:54;1.65;;;1.40;;
23588;SDS011;11972;48.078;11.876;2024-01-30T09:50:55;2.17;;;1.48;;
23588;SDS011;11972;48.078;11.876;2024-01-30T09:54:59;2.72;;;1.80;;
23588;SDS011;11972;48.078;11.876;2024-01-30T09:59:00;1.80;;;1.40;;
23588;SDS011;11972;48.078;11.876;2024-01-30T10:03:00;1.90;;;1.60;;
23588;SDS011;11972;48.078;11.876;2024-01-30T10:07:01;1.97;;;1.53;;
23588;SDS011;11972;48.078;11.876;2024-01-30T10:11:02;1.60;;;1.40;;
23588;SDS011;11972;48.078;11.876;2024-01-30T10:15:06;1.85;;;1.48;;
23588;SDS011;11972;48.078;11.876;2024-01-30T10:19:09;1.33;;;1.20;;
23588;SDS011;11972;48.078;11.876;2024-01-30T10:23:09;1.80;;;1.35;;
23588;SDS011;11972;48.078;11.876;2024-01-30T10:27:09;2.00;;;1.00;;
23588;SDS011;11972;48.078;11.876;2024-01-30T10:31:10;1.47;;;1.07;;
23588;SDS011;11972;48.078;11.876;2024-01-30T10:35:10;1.58;;;1.13;;
23588;SDS011;11972;48.078;11.876;2024-01-30T10:39:10;1.10;;;1.00;;
23588;SDS011;11972;48.078;11.876;2024-01-30T10:43:13;1.92;;;0.90;;
23588;SDS011;11972;48.078;11.876;2024-01-30T10:47:18;2.88;;;1.23;;
23588;SDS011;11972;48.078;11.876;2024-01-30T10:51:22;1.00;;;0.80;;
23588;SDS011;11972;48.078;11.876;2024-01-30T10:55:25;1.65;;;1.00;;
23588;SDS011;11972;48.078;11.876;2024-01-30T10:59:28;1.20;;;0.98;;
23588;SDS011;11972;48.078;11.876;2024-01-30T11:03:31;1.33;;;0.82;;
23588;SDS011;11972;48.078;11.876;2024-01-30T11:07:34;0.65;;;0.63;;
23588;SDS011;11972;48.078;11.876;2024-01-30T11:11:51;0.98;;;0.70;;
23588;SDS011;11972;48.078;11.876;2024-01-30T11:15:52;1.10;;;0.60;;
23588;SDS011;11972;48.078;11.876;2024-01-30T11:19:52;0.80;;;0.55;;
23588;SDS011;11972;48.078;11.876;2024-01-30T11:23:53;0.65;;;0.60;;
23588;SDS011;11972;48.078;11.876;2024-01-30T11:27:55;1.70;;;0.73;;
23588;SDS011;11972;48.078;11.876;2024-01-30T11:31:59;0.88;;;0.70;;
23588;SDS011;11972;48.078;11.876;2024-01-30T11:35:59;0.80;;;0.80;;
23588;SDS011;11972;48.078;11.876;2024-01-30T11:40:01;1.33;;;0.60;;
23588;SDS011;11972;48.078;11.876;2024-01-30T11:44:04;1.05;;;0.63;;
23588;SDS011;11972;48.078;11.876;2024-01-30T11:48:04;0.93;;;0.70;;
23588;SDS011;11972;48.078;11.876;2024-01-30T11:52:05;2.45;;;0.98;;
23588;SDS011;11972;48.078;11.876;2024-01-30T11:56:06;2.47;;;1.20;;
23588;SDS011;11972;48.078;11.876;2024-01-30T12:00:13;2.00;;;1.13;;
23588;SDS011;11972;48.078;11.876;2024-01-30T12:04:15;0.73;;;0.70;;
23588;SDS011;11972;48.078;11.876;2024-01-30T12:08:15;1.17;;;0.90;;
23588;SDS011;11972;48.078;11.876;2024-01-30T12:12:16;0.98;;;0.80;;
23588;SDS011;11972;48.078;11.876;2024-01-30T12:16:17;1.10;;;0.90;;
23588;SDS011;11972;48.078;11.876;2024-01-30T12:20:18;1.48;;;0.63;;
23588;SDS011;11972;48.078;11.876;2024-01-30T12:24:19;0.75;;;0.60;;
23588;SDS011;11972;48.078;11.876;2024-01-30T12:28:20;1.48;;;0.73;;
23588;SDS011;11972;48.078;11.876;2024-01-30T12:32:22;0.75;;;0.70;;
23588;SDS011;11972;48.078;11.876;2024-01-30T12:36:22;1.98;;;0.70;;
23588;SDS011;11972;48.078;11.876;2024-01-30T12:40:23;1.95;;;0.93;;
23588;SDS011;11972;48.078;11.876;2024-01-30T12:44:24;2.10;;;0.90;;
23588;SDS011;11972;48.078;11.876;2024-01-30T12:48:24;1.92;;;0.70;;
23588;SDS011;11972;48.078;11.876;2024-01-30T12:52:25;0.93;;;0.70;;
23588;SDS011;11972;48.078;11.876;2024-01-30T12:56:26;1.42;;;0.80;;
23588;SDS011;11972;48.078;11.876;2024-01-30T13:00:26;2.03;;;1.00;;
23588;SDS011;11972;48.078;11.876;2024-01-30T13:04:27;0.80;;;0.68;;
23588;SDS011;11972;48.078;11.876;2024-01-30T13:08:28;3.00;;;0.93;;
23588;SDS011;11972;48.078;11.876;2024-01-30T13:12:28;1.27;;;0.80;;
23588;SDS011;11972;48.078;11.876;2024-01-30T13:16:29;0.75;;;0.68;;
23588;SDS011;11972;48.078;11.876;2024-01-30T13:20:29;0.95;;;0.70;;
23588;SDS011;11972;48.078;11.876;2024-01-30T13:24:31;0.90;;;0.80;;
23588;SDS011;11972;48.078;11.876;2024-01-30T13:28:31;1.10;;;0.80;;
23588;SDS011;11972;48.078;11.876;2024-01-30T13:32:31;1.37;;;0.60;;
23588;SDS011;11972;48.078;11.876;2024-01-30T13:36:32;0.75;;;0.50;;
23588;SDS011;11972;48.078;11.876;2024-01-30T13:40:32;0.80;;;0.60;;
23588;SDS011;11972;48.078;11.876;2024-01-30T13:44:33;1.00;;;0.60;;
23588;SDS011;11972;48.078;11.876;2024-01-30T13:48:35;1.05;;;0.60;;
23588;SDS011;11972;48.078;11.876;2024-01-30T13:52:35;1.80;;;0.63;;
23588;SDS011;11972;48.078;11.876;2024-01-30T13:56:36;0.80;;;0.63;;
23588;SDS011;11972;48.078;11.876;2024-01-30T14:00:36;2.17;;;0.60;;
23588;SDS011;11972;48.078;11.876;2024-01-30T14:04:36;0.82;;;0.73;;
23588;SDS011;11972;48.078;11.876;2024-01-30T14:08:37;0.82;;;0.60;;
23588;SDS011;11972;48.078;11.876;2024-01-30T14:12:37;1.30;;;0.70;;
23588;SDS011;11972;48.078;11.876;2024-01-30T14:16:38;0.60;;;0.50;;
23588;SDS011;11972;48.078;11.876;2024-01-30T14:20:38;2.45;;;0.60;;
23588;SDS011;11972;48.078;11.876;2024-01-30T14:24:38;1.27;;;0.60;;
23588;SDS011;11972;48.078;11.876;2024-01-30T14:28:39;2.08;;;0.70;;
23588;SDS011;11972;48.078;11.876;2024-01-30T14:32:39;1.47;;;0.70;;
23588;SDS011;11972;48.078;11.876;2024-01-30T14:36:40;0.60;;;0.60;;
23588;SDS011;11972;48.078;11.876;2024-01-30T14:40:41;1.15;;;0.80;;
23588;SDS011;11972;48.078;11.876;2024-01-30T14:44:42;1.05;;;0.52;;
23588;SDS011;11972;48.078;11.876;2024-01-30T14:48:42;1.88;;;0.80;;
23588;SDS011;11972;48.078;11.876;2024-01-30T14:52:43;1.83;;;1.02;;
23588;SDS011;11972;48.078;11.876;2024-01-30T14:56:44;1.13;;;0.60;;
23588;SDS011;11972;48.078;11.876;2024-01-30T15:00:45;1.05;;;0.75;;
23588;SDS011;11972;48.078;11.876;2024-01-30T15:04:46;1.15;;;0.63;;
23588;SDS011;11972;48.078;11.876;2024-01-30T15:08:46;3.53;;;0.70;;
23588;SDS011;11972;48.078;11.876;2024-01-30T15:12:46;1.30;;;0.60;;
23588;SDS011;11972;48.078;11.876;2024-01-30T15:16:46;1.48;;;0.70;;
23588;SDS011;11972;48.078;11.876;2024-01-30T15:20:47;1.30;;;0.80;;
23588;SDS011;11972;48.078;11.876;2024-01-30T15:24:47;1.13;;;0.70;;
23588;SDS011;11972;48.078;11.876;2024-01-30T15:28:48;4.70;;;0.90;;
23588;SDS011;11972;48.078;11.876;2024-01-30T15:32:48;3.22;;;1.15;;
23588;SDS011;11972;48.078;11.876;2024-01-30T15:36:48;2.42;;;1.27;;
23588;SDS011;11972;48.078;11.876;2024-01-30T15:40:49;2.08;;;1.20;;
23588;SDS011;11972;48.078;11.876;2024-01-30T15:44:49;2.72;;;1.35;;
23588;SDS011;11972;48.078;11.876;2024-01-30T15:48:50;2.08;;;0.98;;
23588;SDS011;11972;48.078;11.876;2024-01-30T15:52:50;3.95;;;1.20;;
23588;SDS011;11972;48.078;11.876;2024-01-30T15:56:51;2.30;;;1.15;;
23588;SDS011;11972;48.078;11.876;2024-01-30T16:00:51;4.32;;;0.93;;
23588;SDS011;11972;48.078;11.876;2024-01-30T16:04:52;2.92;;;1.10;;
23588;SDS011;11972;48.078;11.876;2024-01-30T16:08:52;1.65;;;1.08;;
23588;SDS011;11972;48.078;11.876;2024-01-30T16:12:52;2.95;;;1.20;;
23588;SDS011;11972;48.078;11.876;2024-01-30T16:16:53;2.35;;;1.13;;
23588;SDS011;11972;48.078;11.876;2024-01-30T16:20:53;2.63;;;1.30;;
23588;SDS011;11972;48.078;11.876;2024-01-30T16:24:53;2.03;;;1.40;;
23588;SDS011;11972;48.078;11.876;2024-01-30T16:28:53;3.15;;;2.13;;
23588;SDS011;11972;48.078;11.876;2024-01-30T16:32:54;1.73;;;1.50;;
23588;SDS011;11972;48.078;11.876;2024-01-30T16:36:54;5.78;;;3.60;;
23588;SDS011;11972;48.078;11.876;2024-01-30T16:40:54;4.57;;;3.70;;
23588;SDS011;11972;48.078;11.876;2024-01-30T16:44:55;3.20;;;1.08;;
23588;SDS011;11972;48.078;11.876;2024-01-30T16:48:55;5.93;;;3.70;;
23588;SDS011;11972;48.078;11.876;2024-01-30T16:52:56;9.07;;;5.50;;
23588;SDS011;11972;48.078;11.876;2024-01-30T16:56:56;7.70;;;6.07;;
23588;SDS011;11972;48.078;11.876;2024-01-30T17:00:57;8.35;;;5.63;;
23588;SDS011;11972;48.078;11.876;2024-01-30T17:04:57;9.73;;;6.82;;
23588;SDS011;11972;48.078;11.876;2024-01-30T17:08:59;11.02;;;7.70;;
23588;SDS011;11972;48.078;11.876;2024-01-30T17:12:59;11.48;;;8.52;;
23588;SDS011;11972;48.078;11.876;2024-01-30T17:17:00;12.35;;;9.65;;
23588;SDS011;11972;48.078;11.876;2024-01-30T17:21:02;14.68;;;10.65;;
23588;SDS011;11972;48.078;11.876;2024-01-30T17:25:04;12.45;;;10.38;;
23588;SDS011;11972;48.078;11.876;2024-01-30T17:29:07;11.88;;;9.38;;
23588;SDS011;11972;48.078;11.876;2024-01-30T17:33:07;20.75;;;16.27;;
23588;SDS011;11972;48.078;11.876;2024-01-30T17:37:08;32.92;;;19.15;;
23588;SDS011;11972;48.078;11.876;2024-01-30T17:41:08;21.85;;;14.85;;
23588;SDS011;11972;48.078;11.876;2024-01-30T17:45:09;11.75;;;8.73;;
23588;SDS011;11972;48.078;11.876;2024-01-30T17:49:10;8.38;;;7.10;;
23588;SDS011;11972;48.078;11.876;2024-01-30T17:53:10;11.75;;;8.30;;
23588;SDS011;11972;48.078;11.876;2024-01-30T17:57:10;11.75;;;9.10;;
23588;SDS011;11972;48.078;11.876;2024-01-30T18:01:11;18.85;;;11.93;;
23588;SDS011;11972;48.078;11.876;2024-01-30T18:05:14;26.45;;;15.27;;
23588;SDS011;11972;48.078;11.876;2024-01-30T18:09:14;17.70;;;12.63;;
23588;SDS011;11972;48.078;11.876;2024-01-30T18:13:14;15.65;;;9.90;;
23588;SDS011;11972;48.078;11.876;2024-01-30T18:17:16;12.13;;;9.43;;
23588;SDS011;11972;48.078;11.876;2024-01-30T18:21:17;11.80;;;9.13;;
23588;SDS011;11972;48.078;11.876;2024-01-30T18:25:17;10.38;;;8.10;;
23588;SDS011;11972;48.078;11.876;2024-01-30T18:29:17;13.35;;;11.43;;
23588;SDS011;11972;48.078;11.876;2024-01-30T18:33:18;11.00;;;8.65;;
23588;SDS011;11972;48.078;11.876;2024-01-30T18:37:18;17.35;;;12.32;;
23588;SDS011;11972;48.078;11.876;2024-01-30T18:41:19;20.13;;;13.23;;
23588;SDS011;11972;48.078;11.876;2024-01-30T18:45:19;10.70;;;7.63;;
23588;SDS011;11972;48.078;11.876;2024-01-30T18:49:20;10.30;;;7.43;;
23588;SDS011;11972;48.078;11.876;2024-01-30T18:53:20;8.77;;;6.35;;
23588;SDS011;11972;48.078;11.876;2024-01-30T18:57:20;9.43;;;5.85;;
23588;SDS011;11972;48.078;11.876;2024-01-30T19:01:21;10.32;;;7.78;;
23588;SDS011;11972;48.078;11.876;2024-01-30T19:05:21;16.05;;;11.73;;
23588;SDS011;11972;48.078;11.876;2024-01-30T19:09:22;9.18;;;8.07;;
23588;SDS011;11972;48.078;11.876;2024-01-30T19:13:22;9.90;;;8.80;;
23588;SDS011;11972;48.078;11.876;2024-01-30T19:17:22;12.38;;;7.43;;
23588;SDS011;11972;48.078;11.876;2024-01-30T19:21:24;11.43;;;8.70;;
23588;SDS011;11972;48.078;11.876;2024-01-30T19:25:24;10.02;;;8.23;;
23588;SDS011;11972;48.078;11.876;2024-01-30T19:29:25;12.10;;;8.32;;
23588;SDS011;11972;48.078;11.876;2024-01-30T19:33:25;31.35;;;19.80;;
23588;SDS011;11972;48.078;11.876;2024-01-30T19:37:27;40.75;;;25.33;;
23588;SDS011;11972;48.078;11.876;2024-01-30T19:41:27;15.23;;;11.07;;
23588;SDS011;11972;48.078;11.876;2024-01-30T19:45:29;10.40;;;7.40;;
23588;SDS011;11972;48.078;11.876;2024-01-30T19:49:29;10.25;;;7.47;;
23588;SDS011;11972;48.078;11.876;2024-01-30T19:53:32;8.55;;;7.72;;
23588;SDS011;11972;48.078;11.876;2024-01-30T19:57:33;8.27;;;7.30;;
23588;SDS011;11972;48.078;11.876;2024-01-30T20:01:33;8.85;;;7.50;;
23588;SDS011;11972;48.078;11.876;2024-01-30T20:05:34;8.38;;;6.13;;
23588;SDS011;11972;48.078;11.876;2024-01-30T20:09:34;9.07;;;6.88;;
23588;SDS011;11972;48.078;11.876;2024-01-30T20:13:34;9.35;;;7.68;;
23588;SDS011;11972;48.078;11.876;2024-01-30T20:17:40;11.90;;;8.43;;
23588;SDS011;11972;48.078;11.876;2024-01-30T20:21:40;10.18;;;7.88;;
23588;SDS011;11972;48.078;11.876;2024-01-30T20:25:42;10.25;;;7.38;;
23588;SDS011;11972;48.078;11.876;2024-01-30T20:29:43;11.50;;;8.32;;
23588;SDS011;11972;48.078;11.876;2024-01-30T20:33:43;9.20;;;8.07;;
23588;SDS011;11972;48.078;11.876;2024-01-30T20:37:44;9.32;;;6.85;;
23588;SDS011;11972;48.078;11.876;2024-01-30T20:41:46;9.18;;;6.50;;
23588;SDS011;11972;48.078;11.876;2024-01-30T20:45:47;17.33;;;10.40;;
23588;SDS011;11972;48.078;11.876;2024-01-30T20:49:47;14.15;;;10.35;;
23588;SDS011;11972;48.078;11.876;2024-01-30T20:53:48;13.25;;;8.52;;
23588;SDS011;11972;48.078;11.876;2024-01-30T20:57:48;13.52;;;8.68;;
23588;SDS011;11972;48.078;11.876;2024-01-30T21:01:48;13.63;;;8.20;;
23588;SDS011;11972;48.078;11.876;2024-01-30T21:05:48;21.75;;;14.90;;
23588;SDS011;11972;48.078;11.876;2024-01-30T21:09:49;13.18;;;8.27;;
23588;SDS011;11972;48.078;11.876;2024-01-30T21:13:50;19.23;;;12.48;;
23588;SDS011;11972;48.078;11.876;2024-01-30T21:17:51;10.07;;;7.82;;
23588;SDS011;11972;48.078;11.876;2024-01-30T21:21:51;11.60;;;7.93;;
23588;SDS011;11972;48.078;11.876;2024-01-30T21:25:52;10.05;;;7.32;;
23588;SDS011;11972;48.078;11.876;2024-01-30T21:29:52;9.38;;;6.97;;
23588;SDS011;11972;48.078;11.876;2024-01-30T21:33:52;11.70;;;8.15;;
23588;SDS011;11972;48.078;11.876;2024-01-30T21:37:53;8.05;;;6.00;;
23588;SDS011;11972;48.078;11.876;2024-01-30T21:41:53;7.22;;;6.18;;
23588;SDS011;11972;48.078;11.876;2024-01-30T21:45:53;6.32;;;5.13;;
23588;SDS011;11972;48.078;11.876;2024-01-30T21:49:54;8.07;;;5.70;;
23588;SDS011;11972;48.078;11.876;2024-01-30T21:53:54;7.80;;;6.50;;
23588;SDS011;11972;48.078;11.876;2024-01-30T21:57:55;10.20;;;6.95;;
23588;SDS011;11972;48.078;11.876;2024-01-30T22:01:56;10.18;;;6.97;;
23588;SDS011;11972;48.078;11.876;2024-01-30T22:05:56;13.60;;;7.38;;
23588;SDS011;11972;48.078;11.876;2024-01-30T22:09:56;10.25;;;7.50;;
23588;SDS011;11972;48.078;11.876;2024-01-30T22:13:56;21.80;;;13.82;;
23588;SDS011;11972;48.078;11.876;2024-01-30T22:17:57;10.40;;;7.38;;
23588;SDS011;11972;48.078;11.876;2024-01-30T22:21:57;9.63;;;7.20;;
23588;SDS011;11972;48.078;11.876;2024-01-30T22:25:58;13.10;;;8.18;;
23588;SDS011;11972;48.078;11.876;2024-01-30T22:30:01;13.45;;;9.57;;
23588;SDS011;11972;48.078;11.876;2024-01-30T22:34:02;12.50;;;8.93;;
23588;SDS011;11972;48.078;11.876;2024-01-30T22:38:02;13.52;;;10.32;;
23588;SDS011;11972;48.078;11.876;2024-01-30T22:42:07;20.30;;;14.63;;
23588;SDS011;11972;48.078;11.876;2024-01-30T22:46:08;24.80;;;19.08;;
23588;SDS011;11972;48.078;11.876;2024-01-30T22:50:09;13.00;;;10.30;;
23588;SDS011;11972;48.078;11.876;2024-01-30T22:54:10;20.73;;;16.33;;
23588;SDS011;11972;48.078;11.876;2024-01-30T22:58:10;16.65;;;13.88;;
23588;SDS011;11972;48.078;11.876;2024-01-30T23:02:10;53.50;;;36.35;;
23588;SDS011;11972;48.078;11.876;2024-01-30T23:06:11;9.68;;;7.97;;
23588;SDS011;11972;48.078;11.876;2024-01-30T23:10:12;15.60;;;11.45;;
23588;SDS011;11972;48.078;11.876;2024-01-30T23:14:13;13.43;;;10.15;;
23588;SDS011;11972;48.078;11.876;2024-01-30T23:18:13;20.10;;;15.63;;
23588;SDS011;11972;48.078;11.876;2024-01-30T23:22:14;4.45;;;3.67;;
23588;SDS011;11972;48.078;11.876;2024-01-30T23:26:15;59.60;;;37.63;;
23588;SDS011;11972;48.078;11.876;2024-01-30T23:30:15;4.22;;;3.83;;
23588;SDS011;11972;48.078;11.876;2024-01-30T23:34:16;6.95;;;4.78;;
23588;SDS011;11972;48.078;11.876;2024-01-30T23:38:17;3.08;;;2.53;;
23588;SDS011;11972;48.078;11.876;2024-01-30T23:42:18;5.60;;;4.15;;